createdAt,value
2018-01-24T00:00:00.324Z,3.8
2018-01-24T00:00:04.703Z,3.74
2018-01-24T00:00:08.491Z,3.67
2018-01-24T00:00:12.296Z,3.72
2018-01-24T00:00:16.314Z,3.7
2018-01-24T00:00:20.547Z,3.7
2018-01-24T00:00:24.355Z,3.7
2018-01-24T00:00:28.271Z,3.71
2018-01-24T00:00:32.379Z,3.67
2018-01-24T00:00:36.183Z,3.67
2018-01-24T00:00:40.212Z,3.68
2018-01-24T00:00:44.219Z,3.68
2018-01-24T00:00:48.138Z,3.72
2018-01-24T00:00:52.050Z,3.71
2018-01-24T00:00:55.968Z,3.71
2018-01-24T00:00:59.897Z,3.63
2018-01-24T00:01:03.955Z,3.63
2018-01-24T00:01:07.857Z,3.74
2018-01-24T00:01:11.857Z,3.72
2018-01-24T00:01:15.769Z,3.7
2018-01-24T00:01:19.589Z,3.74
2018-01-24T00:01:23.489Z,3.68
2018-01-24T00:01:27.401Z,3.75
2018-01-24T00:01:31.529Z,3.72
2018-01-24T00:01:35.444Z,3.72
2018-01-24T00:01:39.376Z,3.74
2018-01-24T00:01:43.293Z,3.7
2018-01-24T00:01:47.303Z,3.7
2018-01-24T00:01:51.322Z,3.71
2018-01-24T00:01:55.431Z,3.7
2018-01-24T00:01:59.441Z,3.72
2018-01-24T00:02:03.440Z,3.75
2018-01-24T00:02:07.465Z,3.7
2018-01-24T00:02:11.485Z,3.71
2018-01-24T00:02:15.399Z,3.75
2018-01-24T00:02:19.419Z,3.67
2018-01-24T00:02:23.437Z,3.72
2018-01-24T00:02:27.251Z,3.7
2018-01-24T00:02:31.158Z,3.74
2018-01-24T00:02:34.969Z,3.72
2018-01-24T00:02:39.083Z,3.7
2018-01-24T00:02:43.010Z,3.74
2018-01-24T00:02:47.021Z,3.74
2018-01-24T00:02:51.140Z,3.74
2018-01-24T00:02:55.174Z,3.74
2018-01-24T00:02:59.085Z,3.67
2018-01-24T00:03:03.360Z,3.7
2018-01-24T00:03:07.076Z,3.81
2018-01-24T00:03:11.055Z,3.68
2018-01-24T00:03:15.189Z,3.71
2018-01-24T00:03:19.100Z,3.84
2018-01-24T00:03:23.226Z,3.75
2018-01-24T00:03:27.144Z,3.74
2018-01-24T00:03:30.960Z,3.74
2018-01-24T00:03:34.868Z,3.82
2018-01-24T00:03:38.680Z,3.74
2018-01-24T00:03:42.590Z,3.72
2018-01-24T00:03:46.398Z,3.78
2018-01-24T00:03:50.214Z,3.67
2018-01-24T00:03:54.013Z,3.78
2018-01-24T00:03:57.818Z,3.77
2018-01-24T00:04:01.744Z,3.68
2018-01-24T00:04:05.650Z,3.78
2018-01-24T00:04:09.559Z,3.82
2018-01-24T00:04:13.475Z,3.64
2018-01-24T00:04:17.191Z,3.77
2018-01-24T00:04:21.088Z,3.68
2018-01-24T00:04:25.002Z,3.72
2018-01-24T00:04:28.914Z,3.64
2018-01-24T00:04:32.713Z,3.71
2018-01-24T00:04:36.513Z,3.7
2018-01-24T00:04:40.412Z,3.75
2018-01-24T00:04:44.421Z,3.67
2018-01-24T00:04:48.228Z,3.68
2018-01-24T00:04:52.247Z,3.78
2018-01-24T00:04:56.375Z,3.77
2018-01-24T00:05:00.172Z,3.74
2018-01-24T00:05:04.087Z,3.78
2018-01-24T00:05:07.893Z,3.68
2018-01-24T00:05:11.898Z,3.78
2018-01-24T00:05:15.594Z,3.68
2018-01-24T00:05:19.618Z,3.78
2018-01-24T00:05:23.641Z,3.82
2018-01-24T00:05:27.444Z,3.78
2018-01-24T00:05:31.371Z,3.8
2018-01-24T00:05:35.273Z,3.77
2018-01-24T00:05:39.189Z,3.72
2018-01-24T00:05:42.997Z,3.78
2018-01-24T00:05:47.204Z,3.74
2018-01-24T00:05:51.220Z,3.72
2018-01-24T00:05:55.134Z,3.82
2018-01-24T00:05:59.046Z,3.74
2018-01-24T00:06:03.371Z,3.82
2018-01-24T00:06:07.493Z,3.74
2018-01-24T00:06:11.403Z,3.68
2018-01-24T00:06:15.308Z,3.78
2018-01-24T00:06:19.426Z,3.75
2018-01-24T00:06:23.454Z,3.74
2018-01-24T00:06:27.374Z,3.68
2018-01-24T00:06:31.489Z,3.77
2018-01-24T00:06:35.521Z,3.81
2018-01-24T00:06:39.644Z,3.74
2018-01-24T00:06:43.340Z,3.74
2018-01-24T00:06:47.137Z,3.8
2018-01-24T00:06:51.206Z,3.75
2018-01-24T00:06:55.103Z,3.78
2018-01-24T00:06:59.127Z,3.68
2018-01-24T00:07:03.339Z,3.75
2018-01-24T00:07:07.356Z,3.81
2018-01-24T00:07:11.292Z,3.71
2018-01-24T00:07:15.320Z,3.75
2018-01-24T00:07:19.455Z,3.75
2018-01-24T00:07:23.471Z,3.74
2018-01-24T00:07:27.394Z,3.77
2018-01-24T00:07:31.415Z,3.78
2018-01-24T00:07:35.334Z,3.81
2018-01-24T00:07:39.249Z,3.74
2018-01-24T00:07:43.259Z,3.86
2018-01-24T00:07:47.287Z,3.75
2018-01-24T00:07:51.299Z,3.77
2018-01-24T00:07:55.103Z,3.78
2018-01-24T00:07:59.009Z,3.78
2018-01-24T00:08:03.069Z,3.75
2018-01-24T00:08:06.984Z,3.78
2018-01-24T00:08:10.787Z,3.74
2018-01-24T00:08:14.704Z,3.75
2018-01-24T00:08:18.514Z,3.75
2018-01-24T00:08:22.521Z,3.81
2018-01-24T00:08:26.224Z,3.78
2018-01-24T00:08:30.338Z,3.81
2018-01-24T00:08:34.149Z,3.81
2018-01-24T00:08:38.067Z,3.8
2018-01-24T00:08:42.079Z,3.82
2018-01-24T00:08:45.982Z,3.78
2018-01-24T00:08:50.104Z,3.74
2018-01-24T00:08:54.023Z,3.8
2018-01-24T00:08:57.924Z,3.75
2018-01-24T00:09:02.043Z,3.78
2018-01-24T00:09:06.152Z,3.77
2018-01-24T00:09:10.194Z,3.75
2018-01-24T00:09:14.115Z,3.78
2018-01-24T00:09:17.916Z,3.77
2018-01-24T00:09:21.948Z,3.8
2018-01-24T00:09:25.852Z,3.75
2018-01-24T00:09:29.653Z,3.8
2018-01-24T00:09:33.658Z,3.82
2018-01-24T00:09:37.459Z,3.81
2018-01-24T00:09:41.255Z,3.77
2018-01-24T00:09:45.055Z,3.8
2018-01-24T00:09:48.978Z,3.8
2018-01-24T00:09:53.113Z,3.78
2018-01-24T00:09:56.922Z,3.77
2018-01-24T00:10:00.609Z,3.81
2018-01-24T00:10:04.514Z,3.77
2018-01-24T00:10:08.319Z,3.72
2018-01-24T00:10:12.249Z,3.74
2018-01-24T00:10:16.171Z,3.75
2018-01-24T00:10:20.179Z,3.82
2018-01-24T00:10:24.290Z,3.88
2018-01-24T00:10:28.099Z,3.78
2018-01-24T00:10:32.125Z,3.71
2018-01-24T00:10:36.336Z,3.7
2018-01-24T00:10:40.022Z,3.8
2018-01-24T00:10:44.143Z,3.74
2018-01-24T00:10:48.067Z,3.77
2018-01-24T00:10:51.859Z,3.78
2018-01-24T00:10:56.093Z,3.9
2018-01-24T00:10:59.905Z,3.81
2018-01-24T00:11:03.717Z,3.74
2018-01-24T00:11:07.640Z,3.8
2018-01-24T00:11:11.650Z,3.74
2018-01-24T00:11:15.458Z,3.78
2018-01-24T00:11:19.377Z,3.77
2018-01-24T00:11:23.398Z,3.81
2018-01-24T00:11:27.416Z,3.8
2018-01-24T00:11:31.429Z,3.89
2018-01-24T00:11:35.442Z,3.81
2018-01-24T00:11:39.555Z,3.8
2018-01-24T00:11:43.570Z,3.82
2018-01-24T00:11:47.472Z,3.81
2018-01-24T00:11:51.500Z,3.77
2018-01-24T00:11:55.617Z,3.72
2018-01-24T00:11:59.722Z,3.81
2018-01-24T00:12:03.791Z,3.84
2018-01-24T00:12:07.592Z,3.84
2018-01-24T00:12:11.720Z,3.8
2018-01-24T00:12:15.437Z,3.82
2018-01-24T00:12:19.548Z,3.78
2018-01-24T00:12:23.459Z,3.88
2018-01-24T00:12:27.380Z,3.75
2018-01-24T00:12:31.287Z,3.78
2018-01-24T00:12:35.197Z,3.78
2018-01-24T00:12:39.214Z,3.78
2018-01-24T00:12:43.228Z,3.78
2018-01-24T00:12:47.338Z,3.78
2018-01-24T00:12:51.558Z,3.8
2018-01-24T00:12:55.450Z,3.89
2018-01-24T00:12:59.557Z,3.81
2018-01-24T00:13:03.576Z,3.8
2018-01-24T00:13:07.489Z,3.77
2018-01-24T00:13:11.388Z,3.8
2018-01-24T00:13:15.412Z,3.75
2018-01-24T00:13:19.331Z,3.92
2018-01-24T00:13:23.150Z,3.78
2018-01-24T00:13:27.053Z,3.77
2018-01-24T00:13:31.084Z,3.8
2018-01-24T00:13:35.209Z,3.77
2018-01-24T00:13:39.118Z,3.77
2018-01-24T00:13:42.905Z,3.84
2018-01-24T00:13:46.821Z,3.78
2018-01-24T00:13:50.730Z,3.81
2018-01-24T00:13:54.862Z,3.82
2018-01-24T00:13:58.888Z,3.77
2018-01-24T00:14:02.994Z,3.78
2018-01-24T00:14:06.900Z,3.89
2018-01-24T00:14:10.811Z,3.8
2018-01-24T00:14:14.725Z,3.84
2018-01-24T00:14:18.545Z,3.77
2018-01-24T00:14:22.355Z,3.78
2018-01-24T00:14:26.368Z,3.84
2018-01-24T00:14:30.493Z,3.86
2018-01-24T00:14:34.200Z,3.78
2018-01-24T00:14:37.898Z,3.78
2018-01-24T00:14:41.925Z,3.78
2018-01-24T00:14:45.945Z,3.78
2018-01-24T00:14:49.945Z,3.75
2018-01-24T00:14:53.737Z,3.72
2018-01-24T00:14:57.860Z,3.78
2018-01-24T00:15:01.828Z,3.84
2018-01-24T00:15:05.642Z,3.86
2018-01-24T00:15:09.569Z,3.8
2018-01-24T00:15:13.594Z,3.77
2018-01-24T00:15:17.719Z,3.81
2018-01-24T00:15:21.731Z,3.81
2018-01-24T00:15:25.743Z,3.82
2018-01-24T00:15:29.753Z,3.78
2018-01-24T00:15:33.966Z,3.77
2018-01-24T00:15:37.762Z,3.8
2018-01-24T00:15:41.761Z,3.75
2018-01-24T00:15:45.672Z,3.78
2018-01-24T00:15:49.591Z,3.75
2018-01-24T00:15:53.606Z,3.86
2018-01-24T00:15:57.520Z,3.75
2018-01-24T00:16:01.450Z,3.81
2018-01-24T00:16:05.474Z,3.78
2018-01-24T00:16:09.513Z,3.77
2018-01-24T00:16:13.429Z,3.81
2018-01-24T00:16:17.258Z,3.75
2018-01-24T00:16:21.272Z,3.84
2018-01-24T00:16:25.090Z,3.84
2018-01-24T00:16:29.104Z,3.78
2018-01-24T00:16:32.789Z,3.88
2018-01-24T00:16:36.799Z,3.77
2018-01-24T00:16:40.540Z,3.71
2018-01-24T00:16:44.613Z,3.72
2018-01-24T00:16:48.726Z,3.78
2018-01-24T00:16:52.739Z,3.78
2018-01-24T00:16:56.648Z,3.77
2018-01-24T00:17:00.787Z,3.81
2018-01-24T00:17:04.802Z,3.78
2018-01-24T00:17:08.608Z,3.71
2018-01-24T00:17:12.414Z,3.77
2018-01-24T00:17:16.438Z,3.8
2018-01-24T00:17:20.565Z,3.74
2018-01-24T00:17:24.477Z,3.78
2018-01-24T00:17:28.606Z,3.77
2018-01-24T00:17:32.505Z,3.78
2018-01-24T00:17:36.312Z,3.77
2018-01-24T00:17:40.239Z,3.81
2018-01-24T00:17:44.243Z,3.8
2018-01-24T00:17:48.160Z,3.8
2018-01-24T00:17:52.174Z,3.86
2018-01-24T00:17:55.970Z,3.8
2018-01-24T00:17:59.994Z,3.78
2018-01-24T00:18:04.355Z,3.78
2018-01-24T00:18:08.273Z,3.78
2018-01-24T00:18:12.297Z,3.72
2018-01-24T00:18:16.111Z,3.8
2018-01-24T00:18:20.234Z,3.78
2018-01-24T00:18:24.255Z,3.8
2018-01-24T00:18:27.966Z,3.81
2018-01-24T00:18:32.111Z,3.78
2018-01-24T00:18:35.932Z,3.77
2018-01-24T00:18:39.751Z,3.75
2018-01-24T00:18:43.560Z,3.78
2018-01-24T00:18:47.780Z,3.86
2018-01-24T00:18:51.803Z,3.81
2018-01-24T00:18:55.811Z,3.77
2018-01-24T00:18:59.614Z,3.77
2018-01-24T00:19:03.413Z,3.82
2018-01-24T00:19:07.414Z,3.74
2018-01-24T00:19:11.241Z,3.82
2018-01-24T00:19:15.161Z,3.72
2018-01-24T00:19:19.180Z,3.78
2018-01-24T00:19:23.107Z,3.8
2018-01-24T00:19:27.021Z,3.81
2018-01-24T00:19:30.941Z,3.78
2018-01-24T00:19:35.066Z,3.86
2018-01-24T00:19:39.079Z,3.77
2018-01-24T00:19:43.096Z,3.81
2018-01-24T00:19:47.110Z,3.77
2018-01-24T00:19:51.111Z,3.81
2018-01-24T00:19:54.911Z,3.8
2018-01-24T00:19:58.611Z,3.89
2018-01-24T00:20:02.409Z,3.78
2018-01-24T00:20:06.330Z,3.77
2018-01-24T00:20:10.136Z,3.8
2018-01-24T00:20:14.057Z,3.81
2018-01-24T00:20:18.175Z,3.75
2018-01-24T00:20:22.088Z,3.84
2018-01-24T00:20:26.016Z,3.8
2018-01-24T00:20:29.814Z,3.8
2018-01-24T00:20:33.620Z,3.74
2018-01-24T00:20:37.547Z,3.77
2018-01-24T00:20:41.458Z,3.74
2018-01-24T00:20:45.692Z,3.81
2018-01-24T00:20:49.755Z,3.77
2018-01-24T00:20:53.584Z,3.78
2018-01-24T00:20:57.507Z,3.75
2018-01-24T00:21:01.428Z,3.8
2018-01-24T00:21:05.329Z,3.82
2018-01-24T00:21:09.341Z,3.81
2018-01-24T00:21:13.253Z,3.78
2018-01-24T00:21:17.278Z,3.8
2018-01-24T00:21:21.092Z,3.82
2018-01-24T00:21:24.906Z,3.81
2018-01-24T00:21:29.076Z,3.86
2018-01-24T00:21:32.983Z,3.78
2018-01-24T00:21:36.792Z,3.78
2018-01-24T00:21:40.588Z,3.86
2018-01-24T00:21:44.494Z,3.84
2018-01-24T00:21:48.519Z,3.8
2018-01-24T00:21:52.664Z,3.84
2018-01-24T00:21:56.463Z,3.77
2018-01-24T00:22:00.145Z,3.77
2018-01-24T00:22:04.053Z,3.8
2018-01-24T00:22:08.086Z,3.81
2018-01-24T00:22:12.003Z,3.82
2018-01-24T00:22:15.811Z,3.84
2018-01-24T00:22:19.918Z,3.75
2018-01-24T00:22:23.816Z,3.75
2018-01-24T00:22:27.623Z,3.8
2018-01-24T00:22:31.644Z,3.86
2018-01-24T00:22:35.460Z,3.78
2018-01-24T00:22:39.490Z,3.8
2018-01-24T00:22:43.397Z,3.78
2018-01-24T00:22:47.307Z,3.86
2018-01-24T00:22:51.223Z,3.74
2018-01-24T00:22:55.037Z,3.81
2018-01-24T00:22:58.950Z,3.8
2018-01-24T00:23:03.100Z,3.82
2018-01-24T00:23:07.200Z,3.82
2018-01-24T00:23:11.455Z,3.84
2018-01-24T00:23:15.360Z,3.75
2018-01-24T00:23:19.053Z,3.78
2018-01-24T00:23:22.980Z,3.77
2018-01-24T00:23:26.773Z,3.89
2018-01-24T00:23:30.894Z,3.81
2018-01-24T00:23:34.819Z,3.77
2018-01-24T00:23:38.853Z,3.75
2018-01-24T00:23:42.778Z,3.78
2018-01-24T00:23:46.797Z,3.78
2018-01-24T00:23:50.906Z,3.88
2018-01-24T00:23:54.805Z,3.75
2018-01-24T00:23:58.701Z,3.8
2018-01-24T00:24:02.428Z,3.81
2018-01-24T00:24:06.534Z,3.77
2018-01-24T00:24:10.454Z,3.86
2018-01-24T00:24:14.492Z,3.86
2018-01-24T00:24:18.453Z,3.82
2018-01-24T00:24:22.243Z,3.8
2018-01-24T00:24:25.955Z,3.86
2018-01-24T00:24:29.870Z,3.89
2018-01-24T00:24:33.772Z,3.81
2018-01-24T00:24:37.792Z,3.8
2018-01-24T00:24:41.808Z,3.82
2018-01-24T00:24:45.929Z,3.81
2018-01-24T00:24:49.959Z,3.81
2018-01-24T00:24:53.760Z,3.78
2018-01-24T00:24:57.575Z,3.84
2018-01-24T00:25:01.394Z,3.81
2018-01-24T00:25:05.308Z,3.89
2018-01-24T00:25:09.323Z,3.81
2018-01-24T00:25:13.123Z,3.86
2018-01-24T00:25:16.929Z,3.78
2018-01-24T00:25:21.037Z,3.82
2018-01-24T00:25:25.041Z,3.82
2018-01-24T00:25:29.276Z,3.82
2018-01-24T00:25:33.089Z,3.78
2018-01-24T00:25:36.809Z,3.88
2018-01-24T00:25:40.720Z,3.8
2018-01-24T00:25:44.513Z,3.81
2018-01-24T00:25:48.513Z,3.81
2018-01-24T00:25:52.532Z,3.81
2018-01-24T00:25:56.460Z,3.77
2018-01-24T00:26:00.157Z,3.88
2018-01-24T00:26:04.379Z,3.88
2018-01-24T00:26:08.184Z,3.81
2018-01-24T00:26:12.213Z,3.81
2018-01-24T00:26:16.012Z,3.8
2018-01-24T00:26:20.037Z,3.84
2018-01-24T00:26:23.943Z,3.82
2018-01-24T00:26:27.846Z,3.82
2018-01-24T00:26:31.642Z,3.86
2018-01-24T00:26:35.563Z,3.8
2018-01-24T00:26:39.687Z,3.82
2018-01-24T00:26:43.699Z,3.81
2018-01-24T00:26:47.700Z,3.77
2018-01-24T00:26:51.604Z,3.78
2018-01-24T00:26:55.518Z,3.81
2018-01-24T00:26:59.419Z,3.81
2018-01-24T00:27:03.528Z,3.84
2018-01-24T00:27:07.452Z,3.78
2018-01-24T00:27:11.352Z,3.77
2018-01-24T00:27:15.247Z,3.86
2018-01-24T00:27:19.158Z,3.75
2018-01-24T00:27:23.184Z,3.84
2018-01-24T00:27:26.987Z,3.82
2018-01-24T00:27:30.797Z,3.8
2018-01-24T00:27:34.700Z,3.8
2018-01-24T00:27:38.624Z,3.8
2018-01-24T00:27:42.641Z,3.84
2018-01-24T00:27:46.653Z,3.8
2018-01-24T00:27:50.568Z,3.84
2018-01-24T00:27:54.493Z,3.84
2018-01-24T00:27:58.399Z,3.81
2018-01-24T00:28:02.471Z,3.84
2018-01-24T00:28:06.391Z,3.84
2018-01-24T00:28:10.523Z,3.8
2018-01-24T00:28:14.624Z,3.88
2018-01-24T00:28:18.642Z,3.84
2018-01-24T00:28:22.567Z,3.86
2018-01-24T00:28:26.280Z,3.82
2018-01-24T00:28:30.077Z,3.84
2018-01-24T00:28:34.005Z,3.82
2018-01-24T00:28:38.018Z,3.78
2018-01-24T00:28:41.920Z,3.92
2018-01-24T00:28:45.829Z,3.89
2018-01-24T00:28:49.742Z,3.88
2018-01-24T00:28:53.439Z,3.82
2018-01-24T00:28:57.248Z,3.86
2018-01-24T00:29:01.161Z,3.89
2018-01-24T00:29:05.055Z,3.82
2018-01-24T00:29:08.955Z,3.93
2018-01-24T00:29:12.762Z,3.84
2018-01-24T00:29:16.672Z,3.92
2018-01-24T00:29:20.841Z,3.84
2018-01-24T00:29:24.738Z,3.92
2018-01-24T00:29:28.442Z,3.89
2018-01-24T00:29:32.464Z,3.89
2018-01-24T00:29:36.308Z,3.88
2018-01-24T00:29:40.431Z,3.92
2018-01-24T00:29:44.351Z,3.89
2018-01-24T00:29:48.472Z,3.82
2018-01-24T00:29:52.484Z,3.9
2018-01-24T00:29:56.191Z,3.86
2018-01-24T00:29:59.884Z,3.9
2018-01-24T00:30:03.861Z,3.92
2018-01-24T00:30:07.767Z,3.93
2018-01-24T00:30:11.787Z,3.88
2018-01-24T00:30:15.786Z,3.88
2018-01-24T00:30:19.903Z,3.88
2018-01-24T00:30:23.920Z,3.9
2018-01-24T00:30:27.720Z,3.9
2018-01-24T00:30:31.642Z,3.89
2018-01-24T00:30:35.644Z,3.89
2018-01-24T00:30:39.454Z,3.96
2018-01-24T00:30:43.463Z,3.98
2018-01-24T00:30:47.694Z,3.9
2018-01-24T00:30:51.596Z,3.88
2018-01-24T00:30:55.714Z,3.9
2018-01-24T00:30:59.664Z,3.93
2018-01-24T00:31:03.472Z,3.88
2018-01-24T00:31:07.396Z,3.92
2018-01-24T00:31:11.417Z,3.9
2018-01-24T00:31:15.114Z,3.93
2018-01-24T00:31:18.807Z,3.92
2018-01-24T00:31:22.815Z,3.93
2018-01-24T00:31:26.946Z,3.99
2018-01-24T00:31:30.868Z,3.92
2018-01-24T00:31:34.769Z,3.92
2018-01-24T00:31:38.564Z,3.92
2018-01-24T00:31:42.361Z,3.96
2018-01-24T00:31:46.386Z,3.92
2018-01-24T00:31:50.409Z,3.98
2018-01-24T00:31:54.104Z,3.96
2018-01-24T00:31:58.249Z,3.95
2018-01-24T00:32:02.056Z,3.96
2018-01-24T00:32:05.876Z,3.95
2018-01-24T00:32:09.574Z,3.92
2018-01-24T00:32:13.598Z,3.96
2018-01-24T00:32:17.395Z,3.98
2018-01-24T00:32:21.362Z,3.98
2018-01-24T00:32:25.270Z,3.92
2018-01-24T00:32:29.386Z,3.93
2018-01-24T00:32:33.146Z,3.9
2018-01-24T00:32:37.041Z,3.96
2018-01-24T00:32:41.057Z,3.92
2018-01-24T00:32:44.958Z,4.02
2018-01-24T00:32:48.861Z,3.92
2018-01-24T00:32:52.768Z,3.98
2018-01-24T00:32:56.880Z,3.99
2018-01-24T00:33:00.890Z,3.96
2018-01-24T00:33:05.105Z,3.98
2018-01-24T00:33:08.905Z,3.93
2018-01-24T00:33:12.819Z,4.04
2018-01-24T00:33:16.942Z,3.96
2018-01-24T00:33:20.731Z,3.98
2018-01-24T00:33:24.422Z,4
2018-01-24T00:33:28.351Z,3.98
2018-01-24T00:33:32.256Z,4
2018-01-24T00:33:36.165Z,3.96
2018-01-24T00:33:39.981Z,3.98
2018-01-24T00:33:43.910Z,3.99
2018-01-24T00:33:47.928Z,4
2018-01-24T00:33:51.834Z,3.95
2018-01-24T00:33:55.916Z,4
2018-01-24T00:33:59.831Z,3.9
2018-01-24T00:34:03.643Z,3.92
2018-01-24T00:34:07.438Z,4.04
2018-01-24T00:34:11.236Z,3.95
2018-01-24T00:34:15.249Z,3.92
2018-01-24T00:34:19.060Z,3.95
2018-01-24T00:34:23.080Z,3.93
2018-01-24T00:34:26.886Z,3.99
2018-01-24T00:34:31.026Z,4.04
2018-01-24T00:34:34.826Z,4.02
2018-01-24T00:34:38.639Z,3.93
2018-01-24T00:34:42.541Z,3.98
2018-01-24T00:34:46.557Z,4.02
2018-01-24T00:34:50.420Z,3.95
2018-01-24T00:34:54.217Z,3.99
2018-01-24T00:34:58.335Z,3.99
2018-01-24T00:35:02.132Z,3.96
2018-01-24T00:35:06.057Z,4
2018-01-24T00:35:09.990Z,3.95
2018-01-24T00:35:13.906Z,3.99
2018-01-24T00:35:17.817Z,3.98
2018-01-24T00:35:21.735Z,3.98
2018-01-24T00:35:25.851Z,3.98
2018-01-24T00:35:29.663Z,4.02
2018-01-24T00:35:33.789Z,3.93
2018-01-24T00:35:37.696Z,3.93
2018-01-24T00:35:41.495Z,3.95
2018-01-24T00:35:45.396Z,4.02
2018-01-24T00:35:49.419Z,4
2018-01-24T00:35:53.314Z,4.02
2018-01-24T00:35:57.222Z,3.98
2018-01-24T00:36:01.242Z,3.92
2018-01-24T00:36:05.289Z,4.06
2018-01-24T00:36:09.193Z,4
2018-01-24T00:36:13.317Z,3.98
2018-01-24T00:36:17.117Z,4
2018-01-24T00:36:21.036Z,3.93
2018-01-24T00:36:24.859Z,3.98
2018-01-24T00:36:28.761Z,4.02
2018-01-24T00:36:32.772Z,3.96
2018-01-24T00:36:36.579Z,3.98
2018-01-24T00:36:40.598Z,3.96
2018-01-24T00:36:44.622Z,3.96
2018-01-24T00:36:48.431Z,3.95
2018-01-24T00:36:52.360Z,3.93
2018-01-24T00:36:56.373Z,4.04
2018-01-24T00:37:00.285Z,4
2018-01-24T00:37:04.106Z,4.06
2018-01-24T00:37:07.796Z,4.08
2018-01-24T00:37:11.612Z,3.95
2018-01-24T00:37:15.642Z,3.96
2018-01-24T00:37:19.447Z,4.06
2018-01-24T00:37:23.352Z,4
2018-01-24T00:37:27.256Z,3.99
2018-01-24T00:37:31.055Z,4.06
2018-01-24T00:37:35.101Z,3.98
2018-01-24T00:37:39.002Z,4.02
2018-01-24T00:37:42.916Z,4
2018-01-24T00:37:47.158Z,4
2018-01-24T00:37:51.066Z,3.99
2018-01-24T00:37:54.764Z,3.96
2018-01-24T00:37:58.701Z,4
2018-01-24T00:38:02.926Z,4.02
2018-01-24T00:38:06.729Z,3.96
2018-01-24T00:38:10.527Z,4
2018-01-24T00:38:14.564Z,3.99
2018-01-24T00:38:18.354Z,4.02
2018-01-24T00:38:22.257Z,4.02
2018-01-24T00:38:26.266Z,4
2018-01-24T00:38:29.974Z,4.04
2018-01-24T00:38:33.898Z,4.02
2018-01-24T00:38:37.804Z,3.98
2018-01-24T00:38:41.842Z,4.08
2018-01-24T00:38:45.863Z,4.02
2018-01-24T00:38:49.875Z,4.02
2018-01-24T00:38:53.886Z,4.06
2018-01-24T00:38:57.702Z,3.98
2018-01-24T00:39:01.618Z,4.04
2018-01-24T00:39:05.511Z,4
2018-01-24T00:39:09.528Z,4.06
2018-01-24T00:39:13.323Z,4.02
2018-01-24T00:39:17.239Z,3.99
2018-01-24T00:39:20.952Z,4.04
2018-01-24T00:39:24.883Z,4.07
2018-01-24T00:39:28.929Z,4.06
2018-01-24T00:39:32.935Z,3.98
2018-01-24T00:39:36.748Z,4.08
2018-01-24T00:39:40.551Z,4.02
2018-01-24T00:39:44.365Z,4.02
2018-01-24T00:39:48.393Z,4.06
2018-01-24T00:39:52.355Z,4.07
2018-01-24T00:39:56.118Z,4.06
2018-01-24T00:40:00.048Z,4.08
2018-01-24T00:40:04.180Z,4.06
2018-01-24T00:40:08.175Z,3.99
2018-01-24T00:40:12.294Z,4.08
2018-01-24T00:40:16.519Z,4.08
2018-01-24T00:40:20.345Z,4.04
2018-01-24T00:40:24.384Z,4
2018-01-24T00:40:28.497Z,3.99
2018-01-24T00:40:32.199Z,4.04
2018-01-24T00:40:36.116Z,4
2018-01-24T00:40:40.040Z,4.04
2018-01-24T00:40:43.961Z,3.98
2018-01-24T00:40:47.876Z,4.02
2018-01-24T00:40:51.873Z,4.11
2018-01-24T00:40:55.884Z,3.98
2018-01-24T00:40:59.907Z,4.13
2018-01-24T00:41:04.023Z,4.06
2018-01-24T00:41:07.946Z,4.07
2018-01-24T00:41:11.972Z,4.04
2018-01-24T00:41:16.005Z,3.96
2018-01-24T00:41:20.024Z,4.08
2018-01-24T00:41:24.262Z,4.07
2018-01-24T00:41:28.383Z,4.02
2018-01-24T00:41:32.295Z,3.96
2018-01-24T00:41:36.313Z,4.04
2018-01-24T00:41:40.437Z,3.99
2018-01-24T00:41:44.350Z,4.02
2018-01-24T00:41:48.252Z,4.11
2018-01-24T00:41:52.061Z,4.04
2018-01-24T00:41:55.961Z,3.98
2018-01-24T00:41:59.673Z,4.06
2018-01-24T00:42:03.628Z,4.07
2018-01-24T00:42:07.637Z,4.02
2018-01-24T00:42:11.558Z,4.1
2018-01-24T00:42:15.567Z,4.07
2018-01-24T00:42:19.472Z,4.11
2018-01-24T00:42:23.374Z,4.08
2018-01-24T00:42:27.174Z,4.02
2018-01-24T00:42:31.297Z,3.99
2018-01-24T00:42:35.203Z,3.99
2018-01-24T00:42:39.014Z,4.13
2018-01-24T00:42:42.813Z,4.1
2018-01-24T00:42:46.720Z,4.11
2018-01-24T00:42:50.734Z,4.1
2018-01-24T00:42:54.648Z,4.14
2018-01-24T00:42:58.357Z,4.16
2018-01-24T00:43:02.462Z,4.14
2018-01-24T00:43:06.284Z,4.14
2018-01-24T00:43:10.105Z,4.13
2018-01-24T00:43:14.124Z,4.16
2018-01-24T00:43:17.936Z,4.11
2018-01-24T00:43:21.840Z,4.14
2018-01-24T00:43:25.640Z,4.1
2018-01-24T00:43:29.429Z,4.11
2018-01-24T00:43:33.542Z,4.17
2018-01-24T00:43:37.557Z,4.11
2018-01-24T00:43:41.572Z,4.08
2018-01-24T00:43:45.468Z,4.13
2018-01-24T00:43:49.270Z,4.16
2018-01-24T00:43:53.273Z,4.16
2018-01-24T00:43:57.398Z,4.18
2018-01-24T00:44:01.625Z,4.14
2018-01-24T00:44:05.646Z,4.17
2018-01-24T00:44:09.460Z,4.11
2018-01-24T00:44:13.569Z,4.17
2018-01-24T00:44:17.483Z,4.11
2018-01-24T00:44:21.499Z,4.16
2018-01-24T00:44:25.416Z,4.11
2018-01-24T00:44:29.208Z,4.13
2018-01-24T00:44:33.338Z,4.13
2018-01-24T00:44:37.244Z,4.18
2018-01-24T00:44:40.947Z,4.16
2018-01-24T00:44:44.966Z,4.13
2018-01-24T00:45:21.183Z,4.25
2018-01-24T00:45:25.198Z,4.21
2018-01-24T00:45:29.222Z,4.13
2018-01-24T00:45:32.934Z,4.13
2018-01-24T00:45:36.961Z,4.11
2018-01-24T00:45:40.972Z,4.16
2018-01-24T00:45:44.975Z,4.26
2018-01-24T00:45:48.977Z,4.16
2018-01-24T00:45:52.881Z,4.25
2018-01-24T00:45:56.791Z,4.16
2018-01-24T00:46:00.816Z,4.11
2018-01-24T00:46:04.514Z,4.18
2018-01-24T00:46:08.427Z,4.16
2018-01-24T00:46:12.349Z,4.24
2018-01-24T00:46:16.373Z,4.13
2018-01-24T00:46:20.301Z,4.24
2018-01-24T00:46:24.436Z,4.13
2018-01-24T00:46:28.377Z,4.21
2018-01-24T00:46:32.490Z,4.2
2018-01-24T00:46:36.199Z,4.24
2018-01-24T00:46:40.106Z,4.18
2018-01-24T00:46:43.901Z,4.16
2018-01-24T00:46:48.015Z,4.2
2018-01-24T00:46:51.938Z,4.17
2018-01-24T00:46:56.105Z,4.18
2018-01-24T00:46:59.914Z,4.18
2018-01-24T00:47:04.259Z,4.21
2018-01-24T00:47:08.281Z,4.25
2018-01-24T00:47:12.202Z,4.21
2018-01-24T00:47:16.105Z,4.2
2018-01-24T00:47:20.032Z,4.31
2018-01-24T00:47:23.846Z,4.2
2018-01-24T00:47:27.532Z,4.31
2018-01-24T00:47:31.540Z,4.24
2018-01-24T00:47:35.550Z,4.18
2018-01-24T00:47:39.269Z,4.26
2018-01-24T00:47:43.391Z,4.26
2018-01-24T00:47:47.209Z,4.16
2018-01-24T00:47:51.028Z,4.18
2018-01-24T00:47:55.052Z,4.21
2018-01-24T00:47:58.859Z,4.28
2018-01-24T00:48:02.752Z,4.26
2018-01-24T00:48:06.567Z,4.29
2018-01-24T00:48:10.484Z,4.28
2018-01-24T00:48:14.383Z,4.21
2018-01-24T00:48:18.504Z,4.21
2018-01-24T00:48:22.423Z,4.21
2018-01-24T00:48:26.449Z,4.26
2018-01-24T00:48:30.471Z,4.28
2018-01-24T00:48:34.377Z,4.28
2018-01-24T00:48:38.301Z,4.29
2018-01-24T00:48:42.329Z,4.24
2018-01-24T00:48:46.343Z,4.32
2018-01-24T00:48:50.485Z,4.26
2018-01-24T00:48:54.411Z,4.24
2018-01-24T00:48:58.458Z,4.26
2018-01-24T00:49:02.278Z,4.28
2018-01-24T00:49:06.307Z,4.25
2018-01-24T00:49:10.564Z,4.25
2018-01-24T00:49:14.478Z,4.26
2018-01-24T00:49:18.495Z,4.28
2018-01-24T00:49:22.407Z,4.26
2018-01-24T00:49:26.219Z,4.26
2018-01-24T00:49:30.135Z,4.26
2018-01-24T00:49:34.173Z,4.34
2018-01-24T00:49:38.089Z,4.26
2018-01-24T00:49:42.098Z,4.26
2018-01-24T00:49:46.000Z,4.35
2018-01-24T00:49:50.027Z,4.29
2018-01-24T00:49:54.038Z,4.28
2018-01-24T00:49:58.175Z,4.32
2018-01-24T00:50:01.984Z,4.38
2018-01-24T00:50:05.891Z,4.28
2018-01-24T00:50:09.805Z,4.24
2018-01-24T00:50:13.709Z,4.32
2018-01-24T00:50:17.623Z,4.38
2018-01-24T00:50:21.761Z,4.32
2018-01-24T00:50:25.777Z,4.32
2018-01-24T00:50:29.794Z,4.35
2018-01-24T00:50:33.810Z,4.29
2018-01-24T00:50:37.709Z,4.35
2018-01-24T00:50:41.845Z,4.32
2018-01-24T00:50:45.653Z,4.31
2018-01-24T00:50:49.668Z,4.31
2018-01-24T00:50:53.797Z,4.32
2018-01-24T00:50:57.807Z,4.34
2018-01-24T00:51:01.725Z,4.36
2018-01-24T00:51:05.750Z,4.35
2018-01-24T00:51:09.670Z,4.26
2018-01-24T00:51:13.812Z,4.32
2018-01-24T00:51:17.728Z,4.32
2018-01-24T00:51:21.420Z,4.36
2018-01-24T00:51:25.333Z,4.36
2018-01-24T00:51:29.248Z,4.31
2018-01-24T00:51:33.055Z,4.35
2018-01-24T00:51:37.166Z,4.36
2018-01-24T00:51:40.962Z,4.42
2018-01-24T00:51:45.109Z,4.29
2018-01-24T00:51:49.126Z,4.31
2018-01-24T00:51:53.023Z,4.42
2018-01-24T00:51:56.833Z,4.39
2018-01-24T00:52:00.644Z,4.38
2018-01-24T00:52:04.542Z,4.31
2018-01-24T00:52:08.346Z,4.42
2018-01-24T00:52:12.474Z,4.46
2018-01-24T00:52:16.500Z,4.38
2018-01-24T00:52:20.504Z,4.36
2018-01-24T00:52:24.308Z,4.46
2018-01-24T00:52:28.001Z,4.46
2018-01-24T00:52:32.147Z,4.32
2018-01-24T00:52:35.955Z,4.32
2018-01-24T00:52:39.960Z,4.38
2018-01-24T00:52:43.873Z,4.44
2018-01-24T00:52:48.005Z,4.36
2018-01-24T00:52:52.105Z,4.31
2018-01-24T00:52:56.231Z,4.36
2018-01-24T00:53:00.031Z,4.38
2018-01-24T00:53:04.404Z,4.39
2018-01-24T00:53:08.528Z,4.46
2018-01-24T00:53:12.227Z,4.39
2018-01-24T00:53:16.041Z,4.44